Time;durP1;ratioP1;P1;durP2;ratioP2;P2;SDS_P1;SDS_P2;PMS_P1;PMS_P2;Temp;Humidity;BMP_temperature;BMP_pressure;BME280_temperature;BME280_humidity;BME280_pressure;Samples;Min_cycle;Max_cycle;Signal;HPM_P1;HPM_P2
2024/03/17 00:01:00;;;;;;;7.87;6.23;;;8.40;99.90;;;;;;5032623;28;20210;-53
2024/03/17 00:03:27;;;;;;;7.10;6.07;;;8.30;99.90;;;;;;5032233;28;20210;-54
2024/03/17 00:05:57;;;;;;;10.30;6.07;;;8.30;99.90;;;;;;5032128;28;20665;-53
2024/03/17 00:08:24;;;;;;;7.73;6.27;;;8.30;99.90;;;;;;5032036;28;20226;-53
2024/03/17 00:10:50;;;;;;;9.03;6.93;;;8.20;99.90;;;;;;5031976;28;20213;-54
2024/03/17 00:13:17;;;;;;;8.40;6.67;;;8.10;99.90;;;;;;5032033;28;20210;-54
2024/03/17 00:15:43;;;;;;;6.50;5.70;;;8.10;99.90;;;;;;5032181;28;20317;-54
2024/03/17 00:18:10;;;;;;;9.00;6.30;;;8.00;99.90;;;;;;5032117;28;20320;-54
2024/03/17 00:20:36;;;;;;;6.93;5.60;;;8.00;99.90;;;;;;5032499;28;20305;-53
2024/03/17 00:23:06;;;;;;;8.40;5.90;;;7.90;99.90;;;;;;5032324;28;20292;-54
2024/03/17 00:25:32;;;;;;;5.80;5.20;;;7.90;99.90;;;;;;5031873;28;20213;-53
2024/03/17 00:27:58;;;;;;;7.47;5.53;;;7.90;99.90;;;;;;5032280;28;20212;-53
2024/03/17 00:30:24;;;;;;;8.13;6.53;;;7.90;99.90;;;;;;5032034;28;20668;-54
2024/03/17 00:32:50;;;;;;;6.77;5.43;;;7.90;99.90;;;;;;5031942;28;20205;-55
2024/03/17 00:35:20;;;;;;;5.93;4.87;;;7.90;99.90;;;;;;5032118;28;20234;-53
2024/03/17 00:37:47;;;;;;;6.37;5.43;;;7.90;99.90;;;;;;5032171;28;20252;-53
2024/03/17 00:40:14;;;;;;;6.03;5.23;;;7.90;99.90;;;;;;5032409;28;20210;-55
2024/03/17 00:42:41;;;;;;;6.13;5.13;;;7.90;99.90;;;;;;5033046;28;20218;-53
2024/03/17 00:45:07;;;;;;;5.93;5.30;;;7.80;99.90;;;;;;5031816;28;20233;-54
2024/03/17 00:47:34;;;;;;;9.30;6.80;;;7.80;99.90;;;;;;5032105;28;20202;-55
2024/03/17 00:50:00;;;;;;;7.97;6.83;;;7.70;99.90;;;;;;5031815;28;20230;-54
2024/03/17 00:52:27;;;;;;;8.87;6.47;;;7.70;99.90;;;;;;5031739;28;20206;-54
2024/03/17 00:54:53;;;;;;;9.77;6.30;;;7.70;99.90;;;;;;5031390;28;20237;-54
2024/03/17 00:57:22;;;;;;;6.90;6.20;;;7.70;99.90;;;;;;5031862;28;20590;-54
2024/03/17 00:59:47;;;;;;;6.57;5.90;;;7.70;99.90;;;;;;5031531;28;20241;-54
2024/03/17 01:02:16;;;;;;;8.20;6.30;;;7.60;99.90;;;;;;5031821;28;20206;-53
2024/03/17 01:04:43;;;;;;;7.00;6.30;;;7.60;99.90;;;;;;5031501;28;20234;-54
2024/03/17 01:07:10;;;;;;;7.47;6.20;;;7.60;99.90;;;;;;5031500;28;20198;-54
2024/03/17 01:09:35;;;;;;;7.20;6.50;;;7.60;99.90;;;;;;5031817;28;20736;-54
2024/03/17 01:12:02;;;;;;;6.27;5.33;;;7.60;99.90;;;;;;5034849;28;20237;-54
2024/03/17 01:14:30;;;;;;;8.00;5.90;;;7.60;99.90;;;;;;5035050;28;20209;-54
2024/03/17 01:16:56;;;;;;;6.10;5.50;;;7.60;99.90;;;;;;5035335;28;20325;-54
2024/03/17 01:19:22;;;;;;;6.20;5.60;;;7.60;99.90;;;;;;5034987;28;20226;-53
2024/03/17 01:21:49;;;;;;;8.30;5.70;;;7.50;99.90;;;;;;5035039;28;20202;-53
2024/03/17 01:24:16;;;;;;;6.10;5.50;;;7.50;99.90;;;;;;5035367;28;20214;-54
2024/03/17 01:26:43;;;;;;;5.47;4.97;;;7.50;99.90;;;;;;5035046;28;20198;-54
2024/03/17 01:29:09;;;;;;;6.27;5.27;;;7.50;99.90;;;;;;5035018;28;20707;-54
2024/03/17 01:31:37;;;;;;;7.00;5.87;;;7.50;99.90;;;;;;5034918;28;20249;-53
2024/03/17 01:34:03;;;;;;;8.17;5.47;;;7.50;99.90;;;;;;5035490;28;20717;-54
2024/03/17 01:36:29;;;;;;;9.80;6.50;;;7.50;99.90;;;;;;5034517;28;20253;-54
2024/03/17 01:38:55;;;;;;;6.40;5.60;;;7.50;99.90;;;;;;5035019;28;20254;-53
2024/03/17 01:41:22;;;;;;;10.67;6.40;;;7.50;99.90;;;;;;5034945;28;20234;-53
2024/03/17 01:43:48;;;;;;;8.97;6.90;;;7.50;99.90;;;;;;5034725;28;20301;-54
2024/03/17 01:46:17;;;;;;;8.17;6.60;;;7.60;99.90;;;;;;5034632;28;20293;-53
2024/03/17 01:48:46;;;;;;;8.47;6.70;;;7.60;99.90;;;;;;5034707;28;20254;-53
2024/03/17 01:51:14;;;;;;;7.93;6.60;;;7.60;99.90;;;;;;5034824;28;20237;-56
2024/03/17 01:53:42;;;;;;;7.67;6.60;;;7.70;99.90;;;;;;5034585;28;20554;-53
2024/03/17 01:56:10;;;;;;;9.57;6.77;;;7.70;99.90;;;;;;5034552;28;20304;-55
2024/03/17 01:58:37;;;;;;;8.27;6.13;;;7.60;99.90;;;;;;5034673;28;20256;-54
2024/03/17 02:01:04;;;;;;;6.53;5.80;;;7.60;99.90;;;;;;5034576;28;20589;-53
2024/03/17 02:03:30;;;;;;;6.43;5.77;;;7.50;99.90;;;;;;5034526;28;20209;-53
2024/03/17 02:05:58;;;;;;;7.20;6.50;;;7.40;99.90;;;;;;5034609;28;20206;-54
2024/03/17 02:08:25;;;;;;;6.27;5.67;;;7.40;99.90;;;;;;5034403;28;20230;-54
2024/03/17 02:10:53;;;;;;;10.87;6.30;;;7.30;99.90;;;;;;5034598;28;20213;-54
2024/03/17 02:13:20;;;;;;;6.10;5.50;;;7.20;99.90;;;;;;5034446;28;20234;-54
2024/03/17 02:15:46;;;;;;;6.23;5.63;;;7.20;99.90;;;;;;5034101;28;20320;-54
2024/03/17 02:18:12;;;;;;;6.30;5.70;;;7.20;99.90;;;;;;5034189;28;20317;-54
2024/03/17 02:20:58;;;;;;;6.37;5.30;;;7.20;99.90;;;;;;5034332;28;20570;-54
2024/03/17 02:23:27;;;;;;;7.97;6.10;;;7.20;99.90;;;;;;5034350;28;20206;-54
2024/03/17 02:25:53;;;;;;;7.27;5.80;;;7.20;99.90;;;;;;5033760;28;20202;-55
2024/03/17 02:28:19;;;;;;;6.00;5.40;;;7.20;99.90;;;;;;5033878;28;20226;-54
2024/03/17 02:30:45;;;;;;;6.60;5.87;;;7.10;99.90;;;;;;5034065;28;20297;-54
2024/03/17 02:33:12;;;;;;;6.07;5.47;;;7.10;99.90;;;;;;5034003;28;20302;-54
2024/03/17 02:35:38;;;;;;;5.33;4.83;;;7.10;99.90;;;;;;5033526;28;20722;-54
2024/03/17 02:38:05;;;;;;;5.73;5.23;;;7.10;99.90;;;;;;5033934;28;20308;-54
2024/03/17 02:40:32;;;;;;;7.67;5.40;;;7.20;99.90;;;;;;5033920;28;20586;-54
2024/03/17 02:42:58;;;;;;;5.80;5.20;;;7.20;99.90;;;;;;5033564;28;20656;-55
2024/03/17 02:45:25;;;;;;;5.67;5.10;;;7.20;99.90;;;;;;5033668;28;20302;-53
2024/03/17 02:47:52;;;;;;;6.37;5.73;;;7.20;99.90;;;;;;5033720;28;20206;-54
2024/03/17 02:50:18;;;;;;;6.37;5.30;;;7.20;99.90;;;;;;5033767;28;20641;-54
2024/03/17 02:52:45;;;;;;;6.67;5.27;;;7.20;99.90;;;;;;5033750;28;20627;-54
2024/03/17 02:55:12;;;;;;;6.23;5.63;;;7.20;99.90;;;;;;5033366;28;20214;-54
2024/03/17 02:57:40;;;;;;;6.43;4.97;;;7.10;99.90;;;;;;5033177;28;20222;-54
2024/03/17 03:00:12;;;;;;;5.40;4.90;;;7.00;99.90;;;;;;5033238;28;20257;-54
2024/03/17 03:02:39;;;;;;;5.17;4.67;;;6.80;99.90;;;;;;5033589;28;20216;-54
2024/03/17 03:05:06;;;;;;;5.13;4.50;;;6.80;99.90;;;;;;5033618;28;20240;-54
2024/03/17 03:07:33;;;;;;;5.27;4.70;;;7.00;99.90;;;;;;5033457;28;20214;-53
2024/03/17 03:10:00;;;;;;;5.30;4.80;;;7.10;99.90;;;;;;5032983;28;20341;-53
2024/03/17 03:12:27;;;;;;;6.43;5.03;;;7.30;99.90;;;;;;5033276;28;20210;-54
2024/03/17 03:14:55;;;;;;;5.73;4.57;;;7.40;99.90;;;;;;5033068;28;20302;-54
2024/03/17 03:17:21;;;;;;;4.80;4.30;;;7.50;99.90;;;;;;5033121;28;20643;-54
2024/03/17 03:19:48;;;;;;;5.10;4.53;;;7.50;99.90;;;;;;5033321;28;20226;-53
2024/03/17 03:22:15;;;;;;;5.97;4.53;;;7.60;99.90;;;;;;5033127;28;20234;-54
2024/03/17 03:24:42;;;;;;;4.70;4.30;;;7.70;99.90;;;;;;5032634;28;20652;-54
2024/03/17 03:27:08;;;;;;;6.07;4.87;;;7.70;99.90;;;;;;5032910;28;20233;-53
2024/03/17 03:29:35;;;;;;;5.67;4.90;;;7.70;99.90;;;;;;5032854;28;20233;-54
2024/03/17 03:32:03;;;;;;;5.97;4.47;;;7.80;99.90;;;;;;5033235;28;20210;-53
2024/03/17 03:34:30;;;;;;;5.13;4.63;;;7.80;99.90;;;;;;5031997;28;20202;-53
2024/03/17 03:36:57;;;;;;;5.20;4.70;;;7.80;99.90;;;;;;5032668;28;20590;-54
2024/03/17 03:39:25;;;;;;;5.27;4.77;;;7.80;99.90;;;;;;5032595;28;20322;-54
2024/03/17 03:41:52;;;;;;;5.17;4.67;;;7.70;99.90;;;;;;5032749;28;20206;-53
2024/03/17 03:44:18;;;;;;;5.03;4.53;;;7.70;99.90;;;;;;5032388;28;20677;-54
2024/03/17 03:46:46;;;;;;;5.23;4.73;;;7.70;99.90;;;;;;5032765;28;20230;-54
2024/03/17 03:49:14;;;;;;;6.00;4.67;;;7.70;99.90;;;;;;5032482;28;20254;-54
2024/03/17 03:51:41;;;;;;;5.80;4.70;;;7.60;99.90;;;;;;5032431;28;20213;-53
2024/03/17 03:54:07;;;;;;;5.23;4.67;;;7.60;99.90;;;;;;5032640;28;20210;-54
2024/03/17 03:56:34;;;;;;;5.60;4.77;;;7.70;99.90;;;;;;5032476;28;20296;-53
2024/03/17 03:59:01;;;;;;;6.57;5.13;;;7.70;99.90;;;;;;5081733;23;20224;-62
2024/03/17 04:01:27;;;;;;;5.73;5.10;;;7.70;99.90;;;;;;5104836;28;20214;-61
2024/03/17 04:03:54;;;;;;;6.20;5.60;;;7.70;99.90;;;;;;5104051;28;20212;-61
2024/03/17 04:06:23;;;;;;;5.50;5.00;;;7.60;99.90;;;;;;5106526;28;20204;-61
2024/03/17 04:08:49;;;;;;;5.80;5.20;;;7.60;99.90;;;;;;5109023;28;20300;-60
2024/03/17 04:11:16;;;;;;;6.43;5.13;;;7.60;99.90;;;;;;5100442;28;20619;-62
2024/03/17 04:13:43;;;;;;;5.60;5.10;;;7.50;99.90;;;;;;5100622;28;20753;-62
2024/03/17 04:16:10;;;;;;;5.67;5.17;;;7.60;99.90;;;;;;5103602;28;20707;-60
2024/03/17 04:18:37;;;;;;;5.63;5.03;;;7.60;99.90;;;;;;5103849;28;20227;-60
2024/03/17 04:21:07;;;;;;;6.50;4.70;;;7.60;99.90;;;;;;5100353;28;20207;-62
2024/03/17 04:23:35;;;;;;;5.37;4.87;;;7.60;99.90;;;;;;5108089;28;20600;-62
2024/03/17 04:26:04;;;;;;;5.73;4.87;;;7.60;99.90;;;;;;5100731;28;20196;-62
2024/03/17 04:28:30;;;;;;;5.53;5.03;;;7.70;99.90;;;;;;5100343;28;20224;-62
2024/03/17 04:31:04;;;;;;;5.73;5.13;;;7.70;99.90;;;;;;5102376;28;20591;-61
2024/03/17 04:33:31;;;;;;;5.90;5.27;;;7.70;99.90;;;;;;5103555;28;20214;-62
2024/03/17 04:35:57;;;;;;;6.43;5.83;;;7.70;99.90;;;;;;5101140;28;20684;-61
2024/03/17 04:38:24;;;;;;;6.80;5.43;;;7.70;99.90;;;;;;5100262;28;20200;-62
2024/03/17 04:40:59;;;;;;;6.33;5.73;;;7.60;99.90;;;;;;5101344;28;20257;-62
2024/03/17 04:43:25;;;;;;;7.13;5.80;;;7.60;99.90;;;;;;5103755;28;20242;-61
2024/03/17 04:46:00;;;;;;;7.43;5.83;;;7.60;99.90;;;;;;5104803;28;20206;-62
2024/03/17 04:48:28;;;;;;;6.67;5.50;;;7.60;99.90;;;;;;5104416;28;20310;-61
2024/03/17 04:50:55;;;;;;;6.07;5.30;;;7.50;99.90;;;;;;5106220;28;20228;-61
2024/03/17 04:53:21;;;;;;;4.77;4.27;;;7.40;99.90;;;;;;5107861;28;20287;-60
2024/03/17 04:55:48;;;;;;;4.60;4.10;;;7.40;99.90;;;;;;5106855;28;20207;-61
2024/03/17 04:58:16;;;;;;;4.53;4.10;;;7.30;99.90;;;;;;5107018;28;20586;-60
2024/03/17 05:00:42;;;;;;;4.63;4.10;;;7.10;99.90;;;;;;5106051;28;20208;-62
2024/03/17 05:03:09;;;;;;;4.60;4.13;;;7.10;99.90;;;;;;5109440;28;20236;-60
2024/03/17 05:05:36;;;;;;;4.50;3.77;;;7.20;99.90;;;;;;5102399;28;20204;-59
2024/03/17 05:08:03;;;;;;;4.00;3.60;;;7.10;99.90;;;;;;5110550;28;20212;-61
2024/03/17 05:10:30;;;;;;;4.00;3.60;;;7.00;99.90;;;;;;5110517;28;20314;-61
2024/03/17 05:12:56;;;;;;;5.33;3.70;;;7.00;99.90;;;;;;5105685;28;20210;-61
2024/03/17 05:15:24;;;;;;;7.63;3.73;;;7.10;99.90;;;;;;5103652;28;20265;-61
2024/03/17 05:17:51;;;;;;;3.77;3.37;;;7.10;99.90;;;;;;5105089;28;20651;-61
2024/03/17 05:20:18;;;;;;;4.20;3.70;;;7.10;99.90;;;;;;5107306;28;20226;-60
2024/03/17 05:22:46;;;;;;;9.50;7.37;;;7.00;99.90;;;;;;5106847;28;20203;-61
2024/03/17 05:25:13;;;;;;;14.97;10.67;;;6.80;99.90;;;;;;5103343;28;20204;-60
2024/03/17 05:27:40;;;;;;;4.80;4.30;;;6.90;99.90;;;;;;5103490;28;20242;-60
2024/03/17 05:30:09;;;;;;;5.33;4.23;;;6.90;99.90;;;;;;5106955;28;20226;-62
2024/03/17 05:32:38;;;;;;;6.03;5.10;;;6.90;99.90;;;;;;5106980;28;20625;-62
2024/03/17 05:35:05;;;;;;;5.07;4.57;;;6.90;99.90;;;;;;5103568;28;20200;-60
2024/03/17 05:37:32;;;;;;;5.50;4.57;;;6.90;99.90;;;;;;5103287;28;20259;-60
2024/03/17 05:39:58;;;;;;;5.17;4.67;;;6.80;99.90;;;;;;5105238;28;20228;-62
2024/03/17 05:42:26;;;;;;;5.83;5.10;;;6.80;99.90;;;;;;5106748;28;20235;-62
2024/03/17 05:44:53;;;;;;;5.63;4.97;;;6.80;99.90;;;;;;5105193;28;20225;-60
2024/03/17 05:47:19;;;;;;;5.30;4.80;;;6.80;99.90;;;;;;5103175;28;20588;-62
2024/03/17 05:49:47;;;;;;;6.73;5.47;;;6.80;99.90;;;;;;5103363;28;20236;-60
2024/03/17 05:52:14;;;;;;;6.10;5.10;;;6.80;99.90;;;;;;5106616;28;20200;-59
2024/03/17 05:54:41;;;;;;;12.07;8.60;;;6.80;99.90;;;;;;5106296;28;20218;-59
2024/03/17 05:57:09;;;;;;;6.47;5.10;;;6.90;99.90;;;;;;5102479;28;20216;-61
2024/03/17 05:59:36;;;;;;;6.60;5.90;;;7.00;99.90;;;;;;5101770;28;20243;-62
2024/03/17 06:02:02;;;;;;;5.30;4.60;;;7.20;99.90;;;;;;5105639;28;20205;-59
2024/03/17 06:04:29;;;;;;;6.27;5.33;;;7.40;99.90;;;;;;5106335;28;20207;-61
2024/03/17 06:06:57;;;;;;;5.77;5.17;;;7.50;99.90;;;;;;5104557;28;20207;-61
2024/03/17 06:09:24;;;;;;;5.17;4.67;;;7.60;99.90;;;;;;5102516;28;20557;-60
2024/03/17 06:11:51;;;;;;;5.40;4.80;;;7.70;99.90;;;;;;5103681;28;20236;-60
2024/03/17 06:14:18;;;;;;;6.97;5.90;;;7.80;99.90;;;;;;5106176;28;20203;-61
2024/03/17 06:16:44;;;;;;;5.87;5.27;;;8.00;99.90;;;;;;5106053;28;20223;-60
2024/03/17 06:19:11;;;;;;;5.40;4.90;;;8.20;99.90;;;;;;5102539;28;20271;-60
2024/03/17 06:21:39;;;;;;;6.23;4.67;;;8.40;99.90;;;;;;5102535;28;20209;-60
2024/03/17 06:24:07;;;;;;;5.90;4.70;;;8.50;99.90;;;;;;5105184;28;20292;-60
2024/03/17 06:26:35;;;;;;;5.97;5.37;;;8.60;99.90;;;;;;5105852;28;20210;-60
2024/03/17 06:29:02;;;;;;;5.43;4.93;;;8.70;99.90;;;;;;5103301;28;20755;-59
2024/03/17 06:31:28;;;;;;;6.03;5.43;;;8.70;99.90;;;;;;5102381;28;20232;-62
2024/03/17 06:33:55;;;;;;;5.90;4.80;;;8.60;99.90;;;;;;5103664;28;20696;-59
2024/03/17 06:36:22;;;;;;;5.60;5.00;;;8.60;99.90;;;;;;5105307;28;20204;-59
2024/03/17 06:38:48;;;;;;;6.63;5.37;;;8.70;99.90;;;;;;5105019;28;20234;-60
2024/03/17 06:41:17;;;;;;;6.20;4.73;;;9.10;99.90;;;;;;5102010;28;20611;-59
2024/03/17 06:43:44;;;;;;;5.43;4.53;;;9.60;99.90;;;;;;5102284;28;20223;-60
2024/03/17 06:46:11;;;;;;;5.07;4.57;;;10.40;99.90;;;;;;5093627;28;20207;-60
2024/03/17 06:48:37;;;;;;;5.57;4.97;;;11.20;99.90;;;;;;5101864;28;20220;-60
2024/03/17 06:51:05;;;;;;;5.40;4.57;;;11.70;99.90;;;;;;5104378;28;20723;-59
2024/03/17 06:53:33;;;;;;;5.27;4.30;;;12.10;99.90;;;;;;5105417;28;20207;-61
2024/03/17 06:56:00;;;;;;;4.63;4.23;;;12.70;99.90;;;;;;5103068;28;20294;-58
2024/03/17 06:58:29;;;;;;;5.20;4.23;;;13.90;99.90;;;;;;5101492;28;20784;-59
2024/03/17 07:00:57;;;;;;;4.43;4.03;;;15.20;99.90;;;;;;5103282;28;20204;-59
2024/03/17 07:03:25;;;;;;;4.72;3.83;;;16.30;99.90;;;;;;5105130;28;20196;-60
2024/03/17 07:05:53;;;;;;;4.35;3.90;;;17.30;99.90;;;;;;5104033;28;20759;-59
2024/03/17 07:08:20;;;;;;;3.88;3.58;;;18.10;99.90;;;;;;5100524;28;20685;-59
2024/03/17 07:10:56;;;;;;;6.68;3.50;;;18.90;99.90;;;;;;5101635;28;20287;-61
2024/03/17 07:13:23;;;;;;;4.75;4.10;;;19.40;99.90;;;;;;5104823;28;20207;-60
2024/03/17 07:15:51;;;;;;;5.80;3.92;;;19.70;99.90;;;;;;5104302;28;20204;-59
2024/03/17 07:18:18;;;;;;;5.57;3.85;;;19.90;99.90;;;;;;5101171;28;20212;-60
2024/03/17 07:20:47;;;;;;;5.05;3.85;;;20.30;99.90;;;;;;5101214;28;20701;-59
2024/03/17 07:23:14;;;;;;;4.53;4.10;;;20.60;99.90;;;;;;5104680;28;20196;-60
2024/03/17 07:25:40;;;;;;;3.92;3.53;;;21.00;99.90;;;;;;5104798;28;20199;-59
2024/03/17 07:28:07;;;;;;;4.10;3.70;;;21.00;99.90;;;;;;5101757;28;20707;-60
2024/03/17 07:30:34;;;;;;;3.83;3.45;;;21.00;99.90;;;;;;5101170;28;20211;-60
2024/03/17 07:33:03;;;;;;;4.70;3.53;;;21.00;99.90;;;;;;5103339;28;20232;-59
2024/03/17 07:35:29;;;;;;;4.30;3.47;;;20.50;99.90;;;;;;5104237;28;20644;-60
2024/03/17 07:37:56;;;;;;;3.97;3.28;;;19.40;99.90;;;;;;5102878;28;20223;-59
2024/03/17 07:40:23;;;;;;;4.72;4.03;;;18.30;99.90;;;;;;5100956;28;20224;-59
2024/03/17 07:42:49;;;;;;;5.45;3.47;;;17.60;99.90;;;;;;5101245;28;20227;-59
2024/03/17 07:45:17;;;;;;;3.83;3.40;;;17.80;99.90;;;;;;5104177;28;20249;-59
2024/03/17 07:47:43;;;;;;;4.10;3.70;;;18.40;99.90;;;;;;5104563;28;20283;-59
2024/03/17 07:50:12;;;;;;;4.18;3.55;;;18.70;99.90;;;;;;5101030;28;20224;-59
2024/03/17 07:52:39;;;;;;;4.25;3.53;;;18.30;99.90;;;;;;5100665;28;20261;-59
2024/03/17 07:55:09;;;;;;;4.25;3.85;;;17.70;99.90;;;;;;5103055;28;20208;-59
2024/03/17 07:57:35;;;;;;;5.68;4.25;;;16.90;99.90;;;;;;5103943;27;20223;-59
2024/03/17 08:00:03;;;;;;;5.22;4.50;;;16.20;99.90;;;;;;5101668;28;20230;-59
2024/03/17 08:02:30;;;;;;;5.00;4.55;;;15.60;99.90;;;;;;5100674;28;20209;-58
2024/03/17 08:04:56;;;;;;;5.37;4.20;;;15.10;99.90;;;;;;5101750;28;20212;-58
2024/03/17 08:07:24;;;;;;;6.13;3.93;;;14.80;99.90;;;;;;5104519;28;20203;-59
2024/03/17 08:09:51;;;;;;;4.30;3.80;;;14.60;99.90;;;;;;5103666;28;20227;-59
2024/03/17 08:12:18;;;;;;;4.30;3.90;;;14.50;99.90;;;;;;5100854;28;20207;-59
2024/03/17 08:14:44;;;;;;;5.70;4.10;;;14.30;99.90;;;;;;5100831;28;20204;-60
2024/03/17 08:17:11;;;;;;;6.03;4.00;;;14.20;99.90;;;;;;5104039;28;20687;-59
2024/03/17 08:19:38;;;;;;;5.73;4.00;;;14.10;99.90;;;;;;5103945;28;20646;-59
2024/03/17 08:22:05;;;;;;;5.67;4.33;;;14.10;99.90;;;;;;5101404;28;20203;-59
2024/03/17 08:24:33;;;;;;;6.03;3.70;;;14.00;99.90;;;;;;5101171;28;20257;-58
2024/03/17 08:27:01;;;;;;;4.97;4.20;;;14.00;99.90;;;;;;5102725;28;20208;-58
2024/03/17 08:29:27;;;;;;;5.03;4.03;;;14.00;99.90;;;;;;5104296;28;20224;-59
2024/03/17 08:31:54;;;;;;;4.30;3.70;;;14.20;99.90;;;;;;5102969;28;20215;-59
2024/03/17 08:34:21;;;;;;;4.60;3.60;;;14.40;99.90;;;;;;5100136;28;20204;-59
2024/03/17 08:36:47;;;;;;;15.33;12.37;;;14.50;99.90;;;;;;5100148;28;20208;-60
2024/03/17 08:39:14;;;;;;;15.53;13.47;;;14.60;99.90;;;;;;5091769;28;20224;-59
2024/03/17 08:41:44;;;;;;;6.27;4.87;;;14.80;99.90;;;;;;5100047;28;20232;-60
2024/03/17 08:44:11;;;;;;;10.10;8.57;;;15.10;99.90;;;;;;5103152;28;20248;-58
2024/03/17 08:46:37;;;;;;;4.67;4.20;;;15.30;99.90;;;;;;5103353;28;20208;-59
2024/03/17 08:49:05;;;;;;;4.90;3.83;;;15.60;99.90;;;;;;5101085;28;20628;-59
2024/03/17 08:51:32;;;;;;;4.10;3.40;;;15.60;99.90;;;;;;5099992;28;20228;-63
2024/03/17 08:53:58;;;;;;;3.83;3.10;;;15.80;99.90;;;;;;5099863;28;20260;-61
2024/03/17 08:56:25;;;;;;;4.10;3.10;;;16.00;99.90;;;;;;5104982;28;20211;-58
2024/03/17 08:58:53;;;;;;;5.27;3.60;;;16.20;99.90;;;;;;5102900;28;20231;-58
2024/03/17 09:01:20;;;;;;;4.07;3.67;;;16.40;99.90;;;;;;5096079;28;20253;-58
2024/03/17 09:03:49;;;;;;;3.63;3.33;;;16.50;99.90;;;;;;5103840;28;20569;-59
2024/03/17 09:06:18;;;;;;;4.65;3.35;;;16.60;99.90;;;;;;5091326;28;20200;-58
2024/03/17 09:08:45;;;;;;;3.50;3.20;;;16.70;99.90;;;;;;5091527;28;20701;-57
2024/03/17 09:11:14;;;;;;;4.55;3.10;;;16.80;99.90;;;;;;5091796;28;20589;-58
2024/03/17 09:13:40;;;;;;;3.47;3.13;;;16.90;99.90;;;;;;5091347;28;20269;-58
2024/03/17 09:16:11;;;;;;;3.30;2.97;;;17.10;99.90;;;;;;5091391;28;20674;-58
2024/03/17 09:18:38;;;;;;;3.60;2.63;;;17.20;99.90;;;;;;5091594;28;20286;-58
2024/03/17 09:21:07;;;;;;;5.22;3.78;;;17.40;99.90;;;;;;5091470;28;20283;-58
2024/03/17 09:23:34;;;;;;;4.00;2.88;;;17.50;99.90;;;;;;5091545;28;20207;-58
2024/03/17 09:26:03;;;;;;;5.05;3.03;;;17.70;99.90;;;;;;5091299;28;20739;-58
2024/03/17 09:28:29;;;;;;;3.88;3.38;;;17.90;99.90;;;;;;5091336;28;20216;-58
2024/03/17 09:30:57;;;;;;;11.65;10.45;;;18.10;99.90;;;;;;5091871;28;20232;-59
2024/03/17 09:33:26;;;;;;;4.05;2.83;;;18.20;99.90;;;;;;5094659;28;20629;-59
2024/03/17 09:35:57;;;;;;;3.58;2.90;;;18.30;99.90;;;;;;5093476;28;20204;-58
2024/03/17 09:38:24;;;;;;;3.17;2.80;;;18.10;99.90;;;;;;5095024;28;20231;-59
2024/03/17 09:40:52;;;;;;;3.65;2.58;;;18.10;99.90;;;;;;5094641;28;20208;-58
2024/03/17 09:43:20;;;;;;;2.80;2.55;;;18.20;99.90;;;;;;5094972;28;20249;-58
2024/03/17 09:45:46;;;;;;;3.60;2.80;;;18.30;99.90;;;;;;5094737;28;20204;-58
2024/03/17 09:48:17;;;;;;;3.50;2.75;;;18.10;99.90;;;;;;5094738;28;20208;-58
2024/03/17 09:50:51;;;;;;;4.72;2.78;;;17.70;99.90;;;;;;5094906;28;20248;-61
2024/03/17 09:53:23;;;;;;;3.53;2.53;;;17.60;99.90;;;;;;5094456;28;20291;-58
2024/03/17 09:55:49;;;;;;;4.43;2.75;;;17.70;99.90;;;;;;5094517;28;20220;-59
2024/03/17 09:58:17;;;;;;;3.42;2.70;;;17.70;99.90;;;;;;5094598;28;20228;-59
2024/03/17 10:00:44;;;;;;;3.40;2.58;;;17.80;99.90;;;;;;5095101;28;20208;-58
2024/03/17 10:03:11;;;;;;;2.53;2.33;;;17.70;99.90;;;;;;5094747;28;20254;-60
2024/03/17 10:05:38;;;;;;;3.35;2.67;;;17.80;99.90;;;;;;5094117;28;20204;-58
2024/03/17 10:08:08;;;;;;;3.13;2.50;;;17.90;99.90;;;;;;5093980;28;20624;-60
2024/03/17 10:10:35;;;;;;;3.58;2.70;;;18.00;99.90;;;;;;5077641;28;20211;-58
2024/03/17 10:13:01;;;;;;;4.70;2.97;;;18.10;99.90;;;;;;5093639;28;20227;-60
2024/03/17 10:15:29;;;;;;;3.08;2.70;;;18.10;99.90;;;;;;5093816;28;20204;-58
2024/03/17 10:17:56;;;;;;;3.03;2.58;;;18.30;99.90;;;;;;5093635;28;20220;-62
2024/03/17 10:20:26;;;;;;;3.28;2.78;;;18.40;99.90;;;;;;5091559;28;20220;-60
2024/03/17 10:22:59;;;;;;;3.47;2.60;;;18.20;99.90;;;;;;5093962;28;20654;-60
2024/03/17 10:25:27;;;;;;;4.45;2.55;;;17.80;99.90;;;;;;5093821;28;20207;-59
2024/03/17 10:27:54;;;;;;;4.45;2.75;;;17.90;99.90;;;;;;5094055;28;20228;-62
2024/03/17 10:30:24;;;;;;;3.42;2.30;;;18.20;99.90;;;;;;5081332;28;20278;-59
2024/03/17 10:32:55;;;;;;;2.72;2.40;;;18.50;99.90;;;;;;5082419;28;20201;-63
2024/03/17 10:35:29;;;;;;;3.92;2.53;;;18.40;99.90;;;;;;5089497;28;20201;-61
2024/03/17 10:37:58;;;;;;;4.65;2.42;;;18.10;99.90;;;;;;5090531;28;20227;-59
2024/03/17 10:40:27;;;;;;;4.28;2.30;;;18.00;99.90;;;;;;5093534;28;20320;-59
2024/03/17 10:42:55;;;;;;;4.00;2.65;;;18.00;99.90;;;;;;5093308;28;20208;-59
2024/03/17 10:45:22;;;;;;;3.35;2.40;;;18.00;99.90;;;;;;5085330;28;20196;-59
2024/03/17 10:47:50;;;;;;;3.42;2.33;;;17.90;99.90;;;;;;5094140;28;20204;-60
2024/03/17 10:50:19;;;;;;;3.97;2.58;;;17.80;99.90;;;;;;5094660;28;20234;-60
2024/03/17 10:52:49;;;;;;;3.65;2.10;;;17.70;99.90;;;;;;5094690;28;20204;-60
2024/03/17 10:55:22;;;;;;;4.15;2.53;;;17.90;99.90;;;;;;5093241;28;20200;-65
2024/03/17 10:57:51;;;;;;;3.72;2.60;;;18.10;99.90;;;;;;5093757;28;20215;-60
2024/03/17 11:00:21;;;;;;;2.67;2.40;;;18.30;99.90;;;;;;5080910;28;20229;-59
2024/03/17 11:02:50;;;;;;;3.55;2.30;;;18.10;99.90;;;;;;5073023;28;20296;-60
2024/03/17 11:05:20;;;;;;;6.50;4.25;;;18.40;99.90;;;;;;5072285;28;20289;-59
2024/03/17 11:07:48;;;;;;;4.10;3.08;;;18.70;99.90;;;;;;5072837;28;20201;-61
2024/03/17 11:10:21;;;;;;;3.30;2.45;;;19.00;99.90;;;;;;5072408;28;20698;-59
2024/03/17 11:12:51;;;;;;;3.97;2.88;;;18.90;99.90;;;;;;5072728;28;20258;-60
2024/03/17 11:15:39;;;;;;;3.50;2.30;;;19.00;99.90;;;;;;5084247;28;20200;-60
2024/03/17 11:18:32;;;;;;;3.50;2.50;;;19.20;99.90;;;;;;5092693;28;20204;-60
2024/03/17 11:21:01;;;;;;;3.85;2.20;;;19.50;99.90;;;;;;5092636;28;20693;-61
2024/03/17 11:23:29;;;;;;;2.83;2.28;;;19.70;99.90;;;;;;5086859;28;20307;-61
2024/03/17 11:25:57;;;;;;;5.35;3.60;;;19.30;99.90;;;;;;5071836;28;20209;-61
2024/03/17 11:28:48;;;;;;;4.10;2.45;;;18.90;99.90;;;;;;5072528;28;20239;-61
2024/03/17 11:31:44;;;;;;;3.05;2.55;;;18.80;99.90;;;;;;5071962;28;20216;-60
2024/03/17 11:34:32;;;;;;;3.30;2.28;;;18.90;99.90;;;;;;5083709;28;20204;-60
2024/03/17 11:37:00;;;;;;;4.03;2.80;;;19.20;99.90;;;;;;5092656;28;20642;-59
2024/03/17 11:39:55;;;;;;;3.65;2.90;;;19.20;99.90;;;;;;5092530;28;20239;-59
2024/03/17 11:42:22;;;;;;;3.67;2.63;;;19.20;99.90;;;;;;5081510;28;20227;-59
2024/03/17 11:45:12;;;;;;;3.22;2.00;;;18.90;99.90;;;;;;5087930;28;20204;-59
2024/03/17 11:47:40;;;;;;;2.95;1.95;;;18.90;99.90;;;;;;5087046;28;20208;-59
2024/03/17 11:50:09;;;;;;;5.13;4.57;;;19.10;99.90;;;;;;5092394;28;20231;-58
2024/03/17 11:52:36;;;;;;;4.70;2.60;;;18.90;99.90;;;;;;5086826;28;20213;-58
2024/03/17 11:55:02;;;;;;;4.60;2.67;;;18.90;99.90;;;;;;5071215;28;20209;-58
2024/03/17 11:57:29;;;;;;;3.03;2.05;;;19.00;99.90;;;;;;5080726;28;20207;-59
2024/03/17 11:59:56;;;;;;;4.88;2.85;;;19.30;99.90;;;;;;5088991;28;20232;-59
2024/03/17 12:02:27;;;;;;;4.45;2.45;;;19.60;99.90;;;;;;5092350;28;20212;-58
2024/03/17 12:04:53;;;;;;;3.92;2.60;;;19.50;99.90;;;;;;5083898;28;20219;-59
2024/03/17 12:07:23;;;;;;;5.07;3.72;;;19.40;99.90;;;;;;5083906;28;20192;-60
2024/03/17 12:09:49;;;;;;;2.67;2.35;;;19.50;99.90;;;;;;5091969;28;20708;-59
2024/03/17 12:12:19;;;;;;;4.07;2.40;;;19.80;99.90;;;;;;5092058;28;20196;-59
2024/03/17 12:14:45;;;;;;;3.42;2.20;;;20.20;99.90;;;;;;5091746;28;20589;-59
2024/03/17 12:17:13;;;;;;;2.78;2.05;;;20.40;99.90;;;;;;5083198;28;20689;-59
2024/03/17 12:19:44;;;;;;;5.70;2.17;;;20.40;99.90;;;;;;5084886;28;20281;-59
2024/03/17 12:22:17;;;;;;;3.78;2.25;;;20.30;99.90;;;;;;5092222;28;20581;-59
2024/03/17 12:24:44;;;;;;;2.60;2.35;;;20.30;99.90;;;;;;5092221;28;20204;-59
2024/03/17 12:27:18;;;;;;;3.67;2.00;;;20.10;99.80;;;;;;5092158;28;20630;-60
2024/03/17 12:29:44;;;;;;;2.28;1.95;;;19.80;99.90;;;;;;5091965;28;20643;-59
2024/03/17 12:32:15;;;;;;;2.95;2.30;;;19.90;99.90;;;;;;5092126;28;20479;-59
2024/03/17 12:34:43;;;;;;;3.47;2.40;;;20.10;99.90;;;;;;5091702;28;20298;-59
2024/03/17 12:37:17;;;;;;;3.78;2.40;;;20.20;99.90;;;;;;5091989;28;20211;-60
2024/03/17 12:39:44;;;;;;;3.20;2.17;;;20.30;99.90;;;;;;5091906;28;20239;-60
2024/03/17 12:42:12;;;;;;;4.15;2.40;;;20.40;98.90;;;;;;5091795;28;20733;-59
2024/03/17 12:44:41;;;;;;;2.97;2.10;;;20.40;98.60;;;;;;5091658;28;20294;-58
2024/03/17 12:47:14;;;;;;;3.88;2.20;;;20.50;98.60;;;;;;5092079;28;20200;-58
2024/03/17 12:49:47;;;;;;;2.97;2.38;;;20.10;98.60;;;;;;5091839;28;20586;-58
2024/03/17 12:52:18;;;;;;;2.72;2.10;;;19.50;99.40;;;;;;5092460;28;20208;-59
2024/03/17 12:54:52;;;;;;;4.13;3.42;;;19.20;99.90;;;;;;5091949;28;20583;-59
2024/03/17 13:00:33;;;;;;;3.75;2.20;;;19.10;99.90;;;;;;5091685;28;20290;-59